Casper-Natrona County International Airport
KCPR : now visible

Airfield :











YOU CAN JOIN US ON...

 
LOGIN :

Register | Disclaimer

   EN    FR    IT 

 









Legend :    VFR   Marginal VFR   IFR   Intensive IFR   Very Intensive IFR
Visi :
Ceiling :
>= 8 km
>= 3000ft
5 to 8 km
1000 to 3000 ft
1500m to 5 km
500 to 1000 ft
800 to 1500m
200 to 500 ft
< 800m
< 200 ft
Symbols :   Thunderstorms  Fog  Heavy snow  Heavy precipitations  Wind > 20 kt







- Airport Elevation : 5350 ft
- IATA code : CPR


KCPR - Casper-Natrona County International

CURRENT METAR :
  • 261053Z 30004KT 10SM CLR 01/01 A2995 RMK AO2 SLP118 T00060006

EXPIRED METARs :
  • 260953Z AUTO 29003KT 10SM CLR 01/01 A2994 RMK AO2 SLP116 T00060006
  • 260853Z AUTO 03005KT 10SM CLR 02/02 A2994 RMK AO2 SLP110 T00220017 56006

TAF KCPR
Valid from the 26 at 06:00 until the 27 at 06:00 UTC


260520Z 2606/2706 20006KT P6SM SKC
FM261800 18007KT P6SM SCT090
FM262200 16011KT P6SM SCT090 BKN120
FM270000 10010KT P6SM VCSH BKN090
FM270400 09010KT P6SM SCT040 SCT090
KZDV FIR / North America



MET'MAP, your aeronautical weather chart ! - Copyright ORBIFLY December 2007 - Disclaimer

ORBIFLY MET'MAP TEAM :

Programming & Development : Alexandra Zaïnal
Concept & Development : Baudouin d'Aumeries
Co-Development & Prog : Marc-Olivier Méhu
Technical & hardware support : Manuel Goepfert

Contact : metmap@orbifly.com




SOURCES & CREDITS :

   NOAA       Earth
Advisory